KMYF

Montgomery-Gibbs Executive Airport

San Diego, California, USA
METAR KMYF 160553Z AUTO 00000KT 10SM FEW014 22/17 A2997 RMK AO2 SLP143 T02170172 10256 20217 51015
Observed Flight Rules
Aug-16 @ 05:53 UTC (25 minutes ago) Visual Flight Rules
Visibility Clouds
10 miles
  • Few at 1,400' AGL
Temperatures Readings
Current 22°C / 72°F
Dewpoint 17°C / 63°F
Humidity 73%
Altimeter 29.97" Hg
Pressure 1014.3 hPa
Elevation 136
METAR KMYF 160553Z AUTO 00000KT 10SM FEW014 22/17 A2997 RMK AO2 SLP143 T02170172 10256 20217 51015
Observed Flight Rules
Aug-16 @ 05:53 UTC
(25 minutes ago)
VFR
Clouds
  • Few at 1,400' AGL
Temperature Dewpoint
22°C / 72°F 17°C / 63°F
Humidity Altimeter Pressure
73% 29.97" Hg 1014.3 hPa